createdAt,value
2018-09-15T00:04:34.867Z,99.60
2018-09-15T00:09:39.320Z,99.60
2018-09-15T00:14:44.377Z,99.60
2018-09-15T00:19:49.256Z,99.60
2018-09-15T00:24:54.295Z,99.60
2018-09-15T00:29:58.675Z,99.60
2018-09-15T00:35:03.383Z,99.60
2018-09-15T00:40:07.743Z,99.60
2018-09-15T00:45:12.667Z,99.60
2018-09-15T00:50:17.150Z,99.60
2018-09-15T00:55:21.781Z,99.60
2018-09-15T01:00:26.371Z,99.60
2018-09-15T01:05:30.726Z,99.60
2018-09-15T01:10:35.067Z,99.60
2018-09-15T01:15:39.627Z,99.60
2018-09-15T01:20:44.151Z,99.60
2018-09-15T01:25:48.657Z,99.60
2018-09-15T01:30:53.242Z,99.60
2018-09-15T01:35:58.273Z,99.60
2018-09-15T01:41:02.733Z,99.60
2018-09-15T01:46:07.176Z,99.60
2018-09-15T01:51:11.671Z,99.60
2018-09-15T01:56:16.496Z,99.60
2018-09-15T02:01:20.954Z,99.60
2018-09-15T02:06:25.481Z,99.60
2018-09-15T02:11:29.905Z,99.60
2018-09-15T02:16:34.558Z,99.60
2018-09-15T02:21:40.015Z,99.60
2018-09-15T02:26:44.538Z,99.60
2018-09-15T02:31:49.096Z,99.60
2018-09-15T02:36:53.588Z,99.60
2018-09-15T02:41:58.100Z,99.60
2018-09-15T02:47:02.784Z,99.60
2018-09-15T02:52:07.381Z,99.60
2018-09-15T02:57:11.835Z,99.60
2018-09-15T03:02:16.444Z,99.60
2018-09-15T03:07:21.611Z,99.60
2018-09-15T03:12:27.295Z,99.60
2018-09-15T03:17:32.173Z,99.60
2018-09-15T03:22:36.778Z,99.60
2018-09-15T03:27:41.052Z,99.60
2018-09-15T03:32:45.584Z,99.60
2018-09-15T03:37:50.186Z,99.60
2018-09-15T03:42:54.792Z,99.60
2018-09-15T03:47:59.228Z,99.60
2018-09-15T03:53:03.760Z,99.60
2018-09-15T03:58:08.392Z,99.60
2018-09-15T04:03:12.897Z,99.60
2018-09-15T04:08:17.518Z,99.60
2018-09-15T04:13:21.959Z,99.60
2018-09-15T04:18:26.474Z,99.60
2018-09-15T04:23:30.812Z,99.60
2018-09-15T04:28:35.440Z,99.60
2018-09-15T04:33:40.670Z,99.60
2018-09-15T04:38:45.142Z,99.60
2018-09-15T04:43:49.816Z,99.60
2018-09-15T04:48:54.235Z,99.60
2018-09-15T04:53:58.945Z,99.60
2018-09-15T04:59:03.533Z,99.60
2018-09-15T05:04:09.351Z,99.60
2018-09-15T05:09:14.327Z,99.60
2018-09-15T05:14:18.829Z,99.60
2018-09-15T05:19:23.573Z,99.60
2018-09-15T05:24:28.271Z,99.60
2018-09-15T05:29:33.122Z,99.60
2018-09-15T05:34:37.471Z,99.60
2018-09-15T05:39:41.978Z,99.60
2018-09-15T05:44:46.541Z,99.60
2018-09-15T05:49:53.188Z,99.60
2018-09-15T05:54:58.761Z,99.60
2018-09-15T06:00:03.439Z,99.60
2018-09-15T06:05:13.404Z,99.60
2018-09-15T06:10:18.024Z,99.60
2018-09-15T06:15:22.647Z,99.60
2018-09-15T06:20:27.274Z,99.60
2018-09-15T06:25:32.827Z,99.60
2018-09-15T06:30:37.565Z,99.60
2018-09-15T06:35:42.705Z,99.60
2018-09-15T06:40:50.031Z,99.60
2018-09-15T06:45:54.779Z,99.60
2018-09-15T06:50:59.176Z,99.60
2018-09-15T06:56:03.719Z,99.60
2018-09-15T07:01:08.351Z,99.60
2018-09-15T07:06:15.047Z,99.60
2018-09-15T07:11:20.031Z,99.60
2018-09-15T07:16:24.390Z,99.60
2018-09-15T07:21:29.676Z,99.60
2018-09-15T07:26:35.646Z,99.60
2018-09-15T07:31:41.103Z,99.60
2018-09-15T07:36:46.962Z,99.60
2018-09-15T07:41:51.560Z,99.60
2018-09-15T07:46:56.244Z,99.60
2018-09-15T07:52:01.575Z,99.20
2018-09-15T07:57:06.415Z,98.60
2018-09-15T08:02:21.914Z,98.50
2018-09-15T08:07:27.388Z,99.60
2018-09-15T08:12:34.057Z,99.60
2018-09-15T08:17:39.787Z,99.60
2018-09-15T08:22:46.434Z,99.60
2018-09-15T08:27:54.557Z,99.10
2018-09-15T08:33:42.182Z,99.60
2018-09-15T08:38:48.596Z,98.60
2018-09-15T08:43:53.252Z,97.50
2018-09-15T08:48:57.844Z,94.80
2018-09-15T08:54:02.456Z,93.50
2018-09-15T08:59:07.295Z,92.10
2018-09-15T09:04:12.784Z,91.90
2018-09-15T09:09:17.311Z,92.60
2018-09-15T09:14:22.451Z,92.10
2018-09-15T09:19:28.065Z,93.80
2018-09-15T09:24:33.294Z,95.60
2018-09-15T09:29:38.363Z,95.50
2018-09-15T09:34:43.293Z,95.30
2018-09-15T09:39:48.313Z,94.90
2018-09-15T09:44:53.571Z,93.80
2018-09-15T09:49:58.028Z,92.40
2018-09-15T09:55:02.360Z,94.00
2018-09-15T10:00:06.930Z,91.70
2018-09-15T10:05:11.212Z,92.40
2018-09-15T10:10:15.661Z,92.80
2018-09-15T10:15:21.786Z,92.00
2018-09-15T10:20:26.857Z,90.60
2018-09-15T10:25:32.330Z,91.20
2018-09-15T10:30:36.761Z,86.70
2018-09-15T10:35:41.377Z,88.80
2018-09-15T10:40:47.587Z,88.90
2018-09-15T10:45:57.139Z,92.00
2018-09-15T10:51:02.344Z,92.70
2018-09-15T10:56:06.904Z,90.90
2018-09-15T11:01:12.012Z,90.10
2018-09-15T11:06:21.346Z,90.00
2018-09-15T11:11:26.052Z,86.30
2018-09-15T11:16:32.665Z,83.40
2018-09-15T11:21:37.354Z,81.10
2018-09-15T11:26:42.807Z,80.20
2018-09-15T11:31:48.097Z,75.90
2018-09-15T11:36:53.275Z,76.90
2018-09-15T11:41:57.944Z,75.70
2018-09-15T11:47:02.417Z,75.60
2018-09-15T11:52:07.462Z,76.20
2018-09-15T11:57:12.566Z,74.70
2018-09-15T12:02:20.766Z,76.60
2018-09-15T12:07:28.017Z,76.00
2018-09-15T12:12:33.386Z,74.00
2018-09-15T12:17:38.265Z,74.40
2018-09-15T12:22:43.214Z,72.90
2018-09-15T12:27:51.474Z,73.30
2018-09-15T12:33:08.571Z,71.50
2018-09-15T12:38:21.111Z,72.40
2018-09-15T12:43:32.745Z,72.60
2018-09-15T12:48:41.874Z,73.90
2018-09-15T12:53:55.528Z,77.00
2018-09-15T12:59:03.183Z,79.50
2018-09-15T13:04:13.770Z,76.30
2018-09-15T13:09:21.063Z,77.10
2018-09-15T13:14:28.438Z,81.70
2018-09-15T13:19:33.091Z,83.70
2018-09-15T13:24:37.810Z,84.20
2018-09-15T13:29:42.572Z,83.40
2018-09-15T13:34:47.505Z,83.20
2018-09-15T13:39:52.095Z,82.20
2018-09-15T13:44:57.743Z,81.70
2018-09-15T13:50:02.997Z,82.10
2018-09-15T13:55:07.477Z,83.00
2018-09-15T14:00:12.820Z,84.30
2018-09-15T14:05:17.703Z,81.30
2018-09-15T14:10:23.811Z,82.70
2018-09-15T14:15:28.477Z,81.40
2018-09-15T14:20:33.238Z,81.10
2018-09-15T14:25:37.576Z,78.90
2018-09-15T14:30:42.017Z,80.50
2018-09-15T14:35:49.273Z,79.40
2018-09-15T14:40:54.572Z,80.90
2018-09-15T14:46:00.572Z,80.50
2018-09-15T14:51:10.906Z,78.50
2018-09-15T14:56:16.164Z,76.50
2018-09-15T15:01:21.001Z,75.20
2018-09-15T15:06:25.728Z,77.70
2018-09-15T15:11:31.614Z,80.40
2018-09-15T15:16:36.677Z,79.60
2018-09-15T15:21:41.216Z,79.30
2018-09-15T15:26:45.886Z,78.20
2018-09-15T15:31:51.390Z,75.50
2018-09-15T15:36:56.494Z,73.60
2018-09-15T15:42:17.479Z,74.30
2018-09-15T15:47:23.585Z,75.00
2018-09-15T15:52:29.023Z,75.80
2018-09-15T15:57:37.534Z,80.80
2018-09-15T16:02:42.621Z,83.50
2018-09-15T16:07:48.245Z,84.80
2018-09-15T16:13:25.089Z,84.10
2018-09-15T16:18:30.391Z,82.40
2018-09-15T16:23:35.079Z,82.00
2018-09-15T16:28:40.888Z,80.70
2018-09-15T16:33:45.901Z,82.50
2018-09-15T16:38:50.464Z,84.90
2018-09-15T16:43:55.802Z,84.90
2018-09-15T16:49:00.564Z,83.50
2018-09-15T16:54:07.252Z,85.30
2018-09-15T16:59:11.698Z,86.50
2018-09-15T17:04:18.548Z,87.60
2018-09-15T17:09:23.569Z,86.70
2018-09-15T17:14:29.718Z,86.90
2018-09-15T17:19:34.196Z,87.90
2018-09-15T17:24:38.662Z,91.50
2018-09-15T17:29:43.685Z,94.30
2018-09-15T17:34:47.928Z,96.70
2018-09-15T17:39:52.396Z,97.70
2018-09-15T17:44:56.723Z,98.60
2018-09-15T17:50:01.387Z,97.50
2018-09-15T17:55:06.298Z,98.10
2018-09-15T18:00:11.858Z,98.20
2018-09-15T18:05:18.334Z,98.20
2018-09-15T18:10:23.984Z,98.60
2018-09-15T18:15:30.166Z,97.80
2018-09-15T18:20:34.557Z,97.30
2018-09-15T18:25:39.626Z,97.10
2018-09-15T18:30:44.386Z,97.70
2018-09-15T18:35:48.842Z,99.00
2018-09-15T18:40:53.561Z,99.60
2018-09-15T18:45:58.006Z,99.60
2018-09-15T18:51:02.675Z,99.60
2018-09-15T18:56:08.338Z,99.60
2018-09-15T19:01:13.317Z,99.60
2018-09-15T19:06:22.620Z,99.60
2018-09-15T19:11:28.405Z,99.60
2018-09-15T19:16:33.299Z,99.60
2018-09-15T19:21:38.397Z,99.60
2018-09-15T19:26:44.824Z,99.60
2018-09-15T19:31:50.746Z,99.60
2018-09-15T19:36:56.649Z,99.60
2018-09-15T19:42:05.046Z,98.10
2018-09-15T19:47:13.054Z,95.00
2018-09-15T19:52:19.029Z,93.10
2018-09-15T19:57:32.854Z,91.70
2018-09-15T20:02:49.784Z,91.20
2018-09-15T20:08:11.238Z,89.80
2018-09-15T20:18:46.580Z,89.30
2018-09-15T20:23:55.337Z,89.50
2018-09-15T20:29:06.322Z,89.10
2018-09-15T20:34:26.171Z,89.20
2018-09-15T20:39:33.805Z,89.40
2018-09-15T20:44:44.373Z,89.10
2018-09-15T20:50:00.597Z,88.30
2018-09-15T20:55:11.463Z,87.70
2018-09-15T21:00:20.302Z,87.60
2018-09-15T21:05:25.866Z,87.90
2018-09-15T21:10:31.479Z,87.90
2018-09-15T21:15:39.394Z,88.10
2018-09-15T21:20:44.077Z,87.90
2018-09-15T21:25:48.816Z,87.80
2018-09-15T21:30:53.574Z,87.70
2018-09-15T21:35:59.006Z,87.70
2018-09-15T21:41:03.801Z,87.70
2018-09-15T21:46:09.087Z,87.20
2018-09-15T21:51:13.990Z,87.10
2018-09-15T21:56:19.043Z,87.20
2018-09-15T22:01:25.187Z,87.00
2018-09-15T22:06:31.054Z,86.80
2018-09-15T22:11:35.739Z,86.40
2018-09-15T22:16:42.293Z,86.70
2018-09-15T22:21:47.402Z,86.50
2018-09-15T22:26:52.832Z,85.90
2018-09-15T22:31:57.762Z,85.80
2018-09-15T22:37:02.430Z,85.70
2018-09-15T22:42:07.264Z,85.80
2018-09-15T22:47:13.535Z,85.90
2018-09-15T22:52:19.236Z,86.90
2018-09-15T22:57:24.120Z,87.80
2018-09-15T23:02:29.506Z,88.20
2018-09-15T23:07:33.997Z,88.70
2018-09-15T23:12:38.999Z,89.60
2018-09-15T23:17:44.757Z,90.80
2018-09-15T23:22:49.944Z,91.40
2018-09-15T23:27:54.647Z,91.60
2018-09-15T23:32:59.226Z,92.10
2018-09-15T23:38:04.188Z,91.70
2018-09-15T23:43:09.064Z,91.90
2018-09-15T23:48:14.036Z,92.00
2018-09-15T23:53:18.768Z,91.00
2018-09-15T23:58:23.353Z,90.50
